sensor_id;sensor_type;location;lat;lon;timestamp;P1;P2;P0
61879;PMS7003;47817;52.798;27.544;2022-11-03T00:04:35;8.6;7.8;5.6
61879;PMS7003;47817;52.798;27.544;2022-11-03T00:08:57;10.4;6.4;4.6
61879;PMS7003;47817;52.798;27.544;2022-11-03T00:13:57;7.8;6.8;5
61879;PMS7003;47817;52.798;27.544;2022-11-03T00:19:21;7.2;5;3.2
61879;PMS7003;47817;52.798;27.544;2022-11-03T00:24:23;6.4;5.6;3.2
61879;PMS7003;47817;52.798;27.544;2022-11-03T00:29:05;9.6;6.6;4.2
61879;PMS7003;47817;52.798;27.544;2022-11-03T00:33:57;9;7.6;4.6
61879;PMS7003;47817;52.798;27.544;2022-11-03T00:39:07;6.4;5.2;3.4
61879;PMS7003;47817;52.798;27.544;2022-11-03T00:44:23;8.2;5.8;4.4
61879;PMS7003;47817;52.798;27.544;2022-11-03T00:49:23;9.3;6.5;4.5
61879;PMS7003;47817;52.798;27.544;2022-11-03T00:54:35;6.8;5.4;3.8
61879;PMS7003;47817;52.798;27.544;2022-11-03T00:59:05;7.6;5.4;4
61879;PMS7003;47817;52.798;27.544;2022-11-03T01:04:07;9.2;6.8;4
61879;PMS7003;47817;52.798;27.544;2022-11-03T01:09:09;8.4;6.8;4
61879;PMS7003;47817;52.798;27.544;2022-11-03T01:14:12;9.4;7;4
61879;PMS7003;47817;52.798;27.544;2022-11-03T01:19:33;6.2;5.2;3.2
61879;PMS7003;47817;52.798;27.544;2022-11-03T01:24:35;7.3;4.3;2.8
61879;PMS7003;47817;52.798;27.544;2022-11-03T01:29:13;8;5.2;3
61879;PMS7003;47817;52.798;27.544;2022-11-03T01:34:25;7.4;5.6;3.4
61879;PMS7003;47817;52.798;27.544;2022-11-03T01:39:25;9.6;7;5.6
61879;PMS7003;47817;52.798;27.544;2022-11-03T01:44:33;8.8;6.4;5
61879;PMS7003;47817;52.798;27.544;2022-11-03T01:49:36;10.8;7.8;5.8
61879;PMS7003;47817;52.798;27.544;2022-11-03T01:54:02;12;10.4;6.2
61879;PMS7003;47817;52.798;27.544;2022-11-03T01:59:25;9.8;7.5;5.5
61879;PMS7003;47817;52.798;27.544;2022-11-03T02:04:12;10;7.8;5.6
61879;PMS7003;47817;52.798;27.544;2022-11-03T02:09:35;8.2;7.2;4.8
61879;PMS7003;47817;52.798;27.544;2022-11-03T02:14:10;7.2;6;4.2
61879;PMS7003;47817;52.798;27.544;2022-11-03T02:18:51;8.4;5;3.6
61879;PMS7003;47817;52.798;27.544;2022-11-03T02:23:51;8.4;6.2;4.4
61879;PMS7003;47817;52.798;27.544;2022-11-03T02:29:23;8;6.8;5.2
61879;PMS7003;47817;52.798;27.544;2022-11-03T02:34:37;7;5.6;4.6
61879;PMS7003;47817;52.798;27.544;2022-11-03T02:39:35;7.4;5.8;3.6
61879;PMS7003;47817;52.798;27.544;2022-11-03T02:44:01;6.6;5.4;4.4
61879;PMS7003;47817;52.798;27.544;2022-11-03T02:49:23;7.4;6.2;4.2
61879;PMS7003;47817;52.798;27.544;2022-11-03T02:54:25;9.5;6;4.8
61879;PMS7003;47817;52.798;27.544;2022-11-03T02:59:10;9.2;6.4;4.6
61879;PMS7003;47817;52.798;27.544;2022-11-03T03:04:35;7.8;5.6;4.6
61879;PMS7003;47817;52.798;27.544;2022-11-03T03:08:59;13.8;9.6;7.4
61879;PMS7003;47817;52.798;27.544;2022-11-03T03:14:26;22.6;19;13
61879;PMS7003;47817;52.798;27.544;2022-11-03T03:19:14;21.3;18.8;12.5
61879;PMS7003;47817;52.798;27.544;2022-11-03T03:24:37;17.4;14.4;10.6
61879;PMS7003;47817;52.798;27.544;2022-11-03T03:28:52;13.6;10.8;8.6
61879;PMS7003;47817;52.798;27.544;2022-11-03T03:33:51;18.2;14;10.2
61879;PMS7003;47817;52.798;27.544;2022-11-03T03:39:13;16.8;15;10.4
61879;PMS7003;47817;52.798;27.544;2022-11-03T03:44:23;9;7.8;5.6
61879;PMS7003;47817;52.798;27.544;2022-11-03T03:49:35;8;6.4;5.2
61879;PMS7003;47817;52.798;27.544;2022-11-03T03:54:35;7.3;5.3;5
61879;PMS7003;47817;52.798;27.544;2022-11-03T03:59:01;6.2;5;3.8
61879;PMS7003;47817;52.798;27.544;2022-11-03T04:04:23;8.4;6.4;4.2
61879;PMS7003;47817;52.798;27.544;2022-11-03T04:08:53;8.2;5.8;3.6
61879;PMS7003;47817;52.798;27.544;2022-11-03T04:14:07;6;4.8;3.4
61879;PMS7003;47817;52.798;27.544;2022-11-03T04:19:37;5.4;3.8;2.8
61879;PMS7003;47817;52.798;27.544;2022-11-03T04:24:11;6.4;4.2;3.4
61879;PMS7003;47817;52.798;27.544;2022-11-03T04:29:35;4.8;4.4;3.2
61879;PMS7003;47817;52.798;27.544;2022-11-03T04:34:11;5;3.4;2.4
61879;PMS7003;47817;52.798;27.544;2022-11-03T04:39:37;5;4.2;3
61879;PMS7003;47817;52.798;27.544;2022-11-03T04:44:10;5.2;4.8;3.8
61879;PMS7003;47817;52.798;27.544;2022-11-03T04:49:01;6.8;4.6;3.4
61879;PMS7003;47817;52.798;27.544;2022-11-03T04:54:02;7.8;6.5;4.5
61879;PMS7003;47817;52.798;27.544;2022-11-03T04:59:23;7.2;5;3
61879;PMS7003;47817;52.798;27.544;2022-11-03T05:04:01;8.6;6.8;5.2
61879;PMS7003;47817;52.798;27.544;2022-11-03T05:09:37;7.6;7.4;5.4
61879;PMS7003;47817;52.798;27.544;2022-11-03T05:13:51;7.3;6.5;5
61879;PMS7003;47817;52.798;27.544;2022-11-03T05:19:37;7.8;6.4;4.2
61879;PMS7003;47817;52.798;27.544;2022-11-03T05:24:27;9;7.4;6
61879;PMS7003;47817;52.798;27.544;2022-11-03T05:29:25;11.2;9;6.8
61879;PMS7003;47817;52.798;27.544;2022-11-03T05:34:27;16.6;11.6;8.4
61879;PMS7003;47817;52.798;27.544;2022-11-03T05:38:52;16.4;12.8;9
61879;PMS7003;47817;52.798;27.544;2022-11-03T05:44:39;12.8;8.4;6.6
61879;PMS7003;47817;52.798;27.544;2022-11-03T05:49:13;10;8.4;6.4
61879;PMS7003;47817;52.798;27.544;2022-11-03T05:54:28;12.2;9.6;6.6
61879;PMS7003;47817;52.798;27.544;2022-11-03T05:59:11;12.3;10.8;7.3
61879;PMS7003;47817;52.798;27.544;2022-11-03T06:04:03;12.8;10.2;7.6
61879;PMS7003;47817;52.798;27.544;2022-11-03T06:09:11;16.4;14;10.2
61879;PMS7003;47817;52.798;27.544;2022-11-03T06:14:23;18;12.4;8.6
61879;PMS7003;47817;52.798;27.544;2022-11-03T06:19:01;18.8;14.2;9.2
61879;PMS7003;47817;52.798;27.544;2022-11-03T06:24:37;17.8;13.8;9
61879;PMS7003;47817;52.798;27.544;2022-11-03T06:29:01;23.6;17.6;11.4
61879;PMS7003;47817;52.798;27.544;2022-11-03T06:34:38;20.3;14.3;10.5
61879;PMS7003;47817;52.798;27.544;2022-11-03T06:39:21;18.4;14.2;9.2
61879;PMS7003;47817;52.798;27.544;2022-11-03T06:44:25;17;13;8.6
61879;PMS7003;47817;52.798;27.544;2022-11-03T06:48:54;19.4;15.6;10.2
61879;PMS7003;47817;52.798;27.544;2022-11-03T06:53:52;19.2;15.6;9.4
61879;PMS7003;47817;52.798;27.544;2022-11-03T06:59:27;20.6;16.8;10.8
61879;PMS7003;47817;52.798;27.544;2022-11-03T07:04:15;21.6;16.4;11
61879;PMS7003;47817;52.798;27.544;2022-11-03T07:09:15;25.4;20;12.4
61879;PMS7003;47817;52.798;27.544;2022-11-03T07:13:52;26.6;22.2;12.6
61879;PMS7003;47817;52.798;27.544;2022-11-03T07:19:02;24;17;11.8
61879;PMS7003;47817;52.798;27.544;2022-11-03T07:23:51;27.8;21.2;13.6
61879;PMS7003;47817;52.798;27.544;2022-11-03T07:29:25;32.6;23.4;14.6
61879;PMS7003;47817;52.798;27.544;2022-11-03T07:34:14;23.2;19.8;11.8
61879;PMS7003;47817;52.798;27.544;2022-11-03T07:39:35;19.8;15.4;10
61879;PMS7003;47817;52.798;27.544;2022-11-03T07:44:01;24.8;20.6;11.6
61879;PMS7003;47817;52.798;27.544;2022-11-03T07:49:35;17.6;14.6;9.4
61879;PMS7003;47817;52.798;27.544;2022-11-03T07:54:27;19.4;15.4;9
61879;PMS7003;47817;52.798;27.544;2022-11-03T07:59:25;19;15;9.8
61879;PMS7003;47817;52.798;27.544;2022-11-03T08:04:23;17.5;13.8;9.8
61879;PMS7003;47817;52.798;27.544;2022-11-03T08:09:01;17.2;14.6;10.2
61879;PMS7003;47817;52.798;27.544;2022-11-03T08:14:37;19.6;15.2;9.4
61879;PMS7003;47817;52.798;27.544;2022-11-03T08:19:13;21.8;16;10.8
61879;PMS7003;47817;52.798;27.544;2022-11-03T08:24:25;22.4;16.2;10
61879;PMS7003;47817;52.798;27.544;2022-11-03T08:28:57;23.6;18.2;10.4
61879;PMS7003;47817;52.798;27.544;2022-11-03T08:34:13;23.2;17.6;10.6
61879;PMS7003;47817;52.798;27.544;2022-11-03T08:39:13;23.6;17.8;10.4
61879;PMS7003;47817;52.798;27.544;2022-11-03T08:44:23;24.4;19;11.4
61879;PMS7003;47817;52.798;27.544;2022-11-03T08:49:11;24.6;20.2;12
61879;PMS7003;47817;52.798;27.544;2022-11-03T08:54:37;25;19.5;11.8
61879;PMS7003;47817;52.798;27.544;2022-11-03T08:58:51;22.8;17.6;11.4
61879;PMS7003;47817;52.798;27.544;2022-11-03T09:04:37;22;19;11.6
61879;PMS7003;47817;52.798;27.544;2022-11-03T09:09:25;24.8;19.3;11.5
61879;PMS7003;47817;52.798;27.544;2022-11-03T09:14:23;22.6;17;10
61879;PMS7003;47817;52.798;27.544;2022-11-03T09:19:11;19;15.4;9.6
61879;PMS7003;47817;52.798;27.544;2022-11-03T09:23:51;19.4;12.8;8.4
61879;PMS7003;47817;52.798;27.544;2022-11-03T09:29:37;18.6;15.2;9.8
61879;PMS7003;47817;52.798;27.544;2022-11-03T09:34:37;20.2;14.4;9.6
61879;PMS7003;47817;52.798;27.544;2022-11-03T09:39:37;16.2;11.2;7.6
61879;PMS7003;47817;52.798;27.544;2022-11-03T09:43:57;15.4;10.4;7
61879;PMS7003;47817;52.798;27.544;2022-11-03T09:49:01;16.4;13.6;8
61879;PMS7003;47817;52.798;27.544;2022-11-03T09:54:13;14.4;12;7.2
61879;PMS7003;47817;52.798;27.544;2022-11-03T09:59:37;14.8;10;6
61879;PMS7003;47817;52.798;27.544;2022-11-03T10:04:01;13.4;10.6;8
61879;PMS7003;47817;52.798;27.544;2022-11-03T10:09:21;12;11;7.6
61879;PMS7003;47817;52.798;27.544;2022-11-03T10:14:01;13.3;10.3;6.3
61879;PMS7003;47817;52.798;27.544;2022-11-03T10:19:35;13.6;10.8;6.2
61879;PMS7003;47817;52.798;27.544;2022-11-03T10:24:13;11.6;10;6.2
61879;PMS7003;47817;52.798;27.544;2022-11-03T10:29:23;11.2;8.2;4.8
61879;PMS7003;47817;52.798;27.544;2022-11-03T10:34:24;12.2;9.6;5.4
61879;PMS7003;47817;52.798;27.544;2022-11-03T10:39:21;13;10.3;6
61879;PMS7003;47817;52.798;27.544;2022-11-03T10:44:37;15.2;10.8;6.8
61879;PMS7003;47817;52.798;27.544;2022-11-03T10:49:37;11;8.4;4.4
61879;PMS7003;47817;52.798;27.544;2022-11-03T10:54:39;11;9;5.6
61879;PMS7003;47817;52.798;27.544;2022-11-03T10:58:51;14.8;10.8;6.8
61879;PMS7003;47817;52.798;27.544;2022-11-03T11:04:02;12.8;9.6;5.6
61879;PMS7003;47817;52.798;27.544;2022-11-03T11:09:14;12.4;7.8;4.8
61879;PMS7003;47817;52.798;27.544;2022-11-03T11:14:49;13;10.8;7.4
61879;PMS7003;47817;52.798;27.544;2022-11-03T11:19:01;17;11.3;6.5
61879;PMS7003;47817;52.798;27.544;2022-11-03T11:24:13;15.4;11;8
61879;PMS7003;47817;52.798;27.544;2022-11-03T11:34:50;12.6;9.8;5.6
61879;PMS7003;47817;52.798;27.544;2022-11-03T11:39:03;9.2;7.8;4.6
61879;PMS7003;47817;52.798;27.544;2022-11-03T11:44:38;14.4;9.4;7
61879;PMS7003;47817;52.798;27.544;2022-11-03T11:49:25;12.8;9.6;6
61879;PMS7003;47817;52.798;27.544;2022-11-03T11:53:51;12;9.5;6
61879;PMS7003;47817;52.798;27.544;2022-11-03T11:59:39;10;8.2;4.8
61879;PMS7003;47817;52.798;27.544;2022-11-03T12:04:37;11.6;8.4;4.6
61879;PMS7003;47817;52.798;27.544;2022-11-03T12:09:37;11.2;8.2;4.4
61879;PMS7003;47817;52.798;27.544;2022-11-03T12:14:31;10;7.6;4.6
61879;PMS7003;47817;52.798;27.544;2022-11-03T12:19:34;10;7.5;4
61879;PMS7003;47817;52.798;27.544;2022-11-03T12:24:47;8.8;6.6;4
61879;PMS7003;47817;52.798;27.544;2022-11-03T12:29:39;7.8;6;3.8
61879;PMS7003;47817;52.798;27.544;2022-11-03T12:34:01;9.4;5.4;3.6
61879;PMS7003;47817;52.798;27.544;2022-11-03T12:39:23;11.4;9.6;6.4
61879;PMS7003;47817;52.798;27.544;2022-11-03T12:44:01;11.8;8.8;6.4
61879;PMS7003;47817;52.798;27.544;2022-11-03T12:49:37;10.2;9;5.8
61879;PMS7003;47817;52.798;27.544;2022-11-03T12:53:51;12;9.4;6.4
61879;PMS7003;47817;52.798;27.544;2022-11-03T12:59:21;14.8;10.8;7
61879;PMS7003;47817;52.798;27.544;2022-11-03T13:03:59;11.2;7.6;5.8
61879;PMS7003;47817;52.798;27.544;2022-11-03T13:09:09;14.6;11.4;7.4
61879;PMS7003;47817;52.798;27.544;2022-11-03T13:14:37;14.5;10.8;7.3
61879;PMS7003;47817;52.798;27.544;2022-11-03T13:19:37;11.4;8;5.4
61879;PMS7003;47817;52.798;27.544;2022-11-03T13:24:37;13.8;9;7
61879;PMS7003;47817;52.798;27.544;2022-11-03T13:29:11;10.6;8.6;5.8
61879;PMS7003;47817;52.798;27.544;2022-11-03T13:33:51;9.6;7.8;5.4
61879;PMS7003;47817;52.798;27.544;2022-11-03T13:39:13;12.2;8.8;6.2
61879;PMS7003;47817;52.798;27.544;2022-11-03T13:44:13;16.8;10;6.8
61879;PMS7003;47817;52.798;27.544;2022-11-03T13:49:37;14.4;11.6;8.6
61879;PMS7003;47817;52.798;27.544;2022-11-03T13:54:37;12.6;10.2;7.8
61879;PMS7003;47817;52.798;27.544;2022-11-03T13:58:51;15;10.2;6.8
61879;PMS7003;47817;52.798;27.544;2022-11-03T14:04:01;12.8;11;7.4
61879;PMS7003;47817;52.798;27.544;2022-11-03T14:09:21;14.8;11.6;7.8
61879;PMS7003;47817;52.798;27.544;2022-11-03T14:14:25;18.2;12.6;8.6
61879;PMS7003;47817;52.798;27.544;2022-11-03T14:19:11;17.4;13.8;9.6
61879;PMS7003;47817;52.798;27.544;2022-11-03T14:23:51;14.5;13;9
61879;PMS7003;47817;52.798;27.544;2022-11-03T14:28:51;12.2;10.2;7.2
61879;PMS7003;47817;52.798;27.544;2022-11-03T14:34:27;16.2;10;7.6
61879;PMS7003;47817;52.798;27.544;2022-11-03T14:38:51;17.8;12.4;8.6
61879;PMS7003;47817;52.798;27.544;2022-11-03T14:44:38;15.4;13.8;10
61879;PMS7003;47817;52.798;27.544;2022-11-03T14:49:03;16.4;12.4;8.8
61879;PMS7003;47817;52.798;27.544;2022-11-03T14:54:11;13.6;10.2;7.4
61879;PMS7003;47817;52.798;27.544;2022-11-03T14:59:13;13.8;10.8;8
61879;PMS7003;47817;52.798;27.544;2022-11-03T15:04:39;14.4;10.6;7.2
61879;PMS7003;47817;52.798;27.544;2022-11-03T15:09:39;15.4;11.2;8
61879;PMS7003;47817;52.798;27.544;2022-11-03T15:13:51;11.2;9.6;6.8
61879;PMS7003;47817;52.798;27.544;2022-11-03T15:18:51;12.8;11;7.8
61879;PMS7003;47817;52.798;27.544;2022-11-03T15:24:23;15.2;12.6;9.8
61879;PMS7003;47817;52.798;27.544;2022-11-03T15:29:27;12.6;10.2;7.2
61879;PMS7003;47817;52.798;27.544;2022-11-03T15:34:09;14.8;9.6;7.4
61879;PMS7003;47817;52.798;27.544;2022-11-03T15:38:51;14.5;12;8.5
61879;PMS7003;47817;52.798;27.544;2022-11-03T15:44:01;12.2;10.4;7.4
61879;PMS7003;47817;52.798;27.544;2022-11-03T15:49:27;13.2;11.2;7.8
61879;PMS7003;47817;52.798;27.544;2022-11-03T15:54:25;16.4;12.6;8.6
61879;PMS7003;47817;52.798;27.544;2022-11-03T15:59:37;14.2;10.4;8
61879;PMS7003;47817;52.798;27.544;2022-11-03T16:04:01;14.4;11.2;8.6
61879;PMS7003;47817;52.798;27.544;2022-11-03T16:08:51;15;12.8;8.6
61879;PMS7003;47817;52.798;27.544;2022-11-03T16:14:17;17;12.8;8.4
61879;PMS7003;47817;52.798;27.544;2022-11-03T16:19:37;18.8;13;9.8
61879;PMS7003;47817;52.798;27.544;2022-11-03T16:24:35;16.2;12.2;8.6
61879;PMS7003;47817;52.798;27.544;2022-11-03T16:29:01;19.8;12.5;8.5
61879;PMS7003;47817;52.798;27.544;2022-11-03T16:34:01;13.4;10.6;7.8
61879;PMS7003;47817;52.798;27.544;2022-11-03T16:39:23;17;12;9
61879;PMS7003;47817;52.798;27.544;2022-11-03T16:44:23;12.4;10;7.4
61879;PMS7003;47817;52.798;27.544;2022-11-03T16:48:51;12.4;9;6.6
61879;PMS7003;47817;52.798;27.544;2022-11-03T16:54:01;18.4;12.4;8.4
61879;PMS7003;47817;52.798;27.544;2022-11-03T16:58:51;19.2;13.4;9
61879;PMS7003;47817;52.798;27.544;2022-11-03T17:04:25;17.8;13.2;8.2
61879;PMS7003;47817;52.798;27.544;2022-11-03T17:09:13;12.6;9.4;6.2
61879;PMS7003;47817;52.798;27.544;2022-11-03T17:14:35;13.5;10.8;7.8
61879;PMS7003;47817;52.798;27.544;2022-11-03T17:18:51;11.6;8;5.6
61879;PMS7003;47817;52.798;27.544;2022-11-03T17:24:11;10.6;8;6
61879;PMS7003;47817;52.798;27.544;2022-11-03T17:29:14;15.4;11.6;7.2
61879;PMS7003;47817;52.798;27.544;2022-11-03T17:34:22;16.8;11.8;7.5
61879;PMS7003;47817;52.798;27.544;2022-11-03T17:39:33;17.4;13.8;10.2
61879;PMS7003;47817;52.798;27.544;2022-11-03T17:43:51;14.6;11.8;9.2
61879;PMS7003;47817;52.798;27.544;2022-11-03T17:49:01;18.6;16.2;13.4
61879;PMS7003;47817;52.798;27.544;2022-11-03T17:54:23;33.8;29.2;24.4
61879;PMS7003;47817;52.798;27.544;2022-11-03T17:59:27;15.4;12;8.8
61879;PMS7003;47817;52.798;27.544;2022-11-03T18:04:10;8.4;6.8;5
61879;PMS7003;47817;52.798;27.544;2022-11-03T18:08:51;7.6;6.8;5.2
61879;PMS7003;47817;52.798;27.544;2022-11-03T18:13:51;12.4;8;6.4
61879;PMS7003;47817;52.798;27.544;2022-11-03T18:19:25;9.2;7.2;5.8
61879;PMS7003;47817;52.798;27.544;2022-11-03T18:24:14;8.4;7.2;5.4
61879;PMS7003;47817;52.798;27.544;2022-11-03T18:29:35;7.4;6.8;5.2
61879;PMS7003;47817;52.798;27.544;2022-11-03T18:33:51;6.5;5;3.5
61879;PMS7003;47817;52.798;27.544;2022-11-03T18:39:01;7.2;5.4;4.6
61879;PMS7003;47817;52.798;27.544;2022-11-03T18:44:15;6.4;4.8;4
61879;PMS7003;47817;52.798;27.544;2022-11-03T18:49:37;17.8;14.2;9.4
61879;PMS7003;47817;52.798;27.544;2022-11-03T18:54:38;15.4;12.2;8
61879;PMS7003;47817;52.798;27.544;2022-11-03T18:59:02;11.2;8.6;6.6
61879;PMS7003;47817;52.798;27.544;2022-11-03T19:03:51;9.6;7.2;5.6
61879;PMS7003;47817;52.798;27.544;2022-11-03T19:09:22;7.2;6.4;4.4
61879;PMS7003;47817;52.798;27.544;2022-11-03T19:14:24;10.4;7.2;5.6
61879;PMS7003;47817;52.798;27.544;2022-11-03T19:19:09;11.5;9.3;6
61879;PMS7003;47817;52.798;27.544;2022-11-03T19:23:51;13.4;10.6;8.2
61879;PMS7003;47817;52.798;27.544;2022-11-03T19:29:02;11.8;9;6.4
61879;PMS7003;47817;52.798;27.544;2022-11-03T19:34:28;12.8;8.4;6
61879;PMS7003;47817;52.798;27.544;2022-11-03T19:39:01;11.3;10.3;6.8
61879;PMS7003;47817;52.798;27.544;2022-11-03T19:44:35;14.2;10;7
61879;PMS7003;47817;52.798;27.544;2022-11-03T19:48:51;16.8;11.2;8
61879;PMS7003;47817;52.798;27.544;2022-11-03T19:54:01;11.6;8.8;5.8
61879;PMS7003;47817;52.798;27.544;2022-11-03T19:59:14;11.8;9.2;7.6
61879;PMS7003;47817;52.798;27.544;2022-11-03T20:04:37;13.6;10.4;6.8
61879;PMS7003;47817;52.798;27.544;2022-11-03T20:09:37;11.4;9;6.4
61879;PMS7003;47817;52.798;27.544;2022-11-03T20:13:51;10.4;7.8;5.4
61879;PMS7003;47817;52.798;27.544;2022-11-03T20:19:13;10.4;7.6;5.4
61879;PMS7003;47817;52.798;27.544;2022-11-03T20:24:21;10;8.4;6
61879;PMS7003;47817;52.798;27.544;2022-11-03T20:29:27;10.4;8.4;6
61879;PMS7003;47817;52.798;27.544;2022-11-03T20:34:08;11;8.4;6.2
61879;PMS7003;47817;52.798;27.544;2022-11-03T20:39:14;10;8.8;6.3
61879;PMS7003;47817;52.798;27.544;2022-11-03T20:43:51;10.8;7.4;6
61879;PMS7003;47817;52.798;27.544;2022-11-03T20:49:25;12.4;8;6.4
61879;PMS7003;47817;52.798;27.544;2022-11-03T20:54:12;12;10;6.4
61879;PMS7003;47817;52.798;27.544;2022-11-03T20:59:35;12;9.6;7.2
61879;PMS7003;47817;52.798;27.544;2022-11-03T21:03:51;16.6;11.6;8.4
61879;PMS7003;47817;52.798;27.544;2022-11-03T21:09:02;13.2;10;6.6
61879;PMS7003;47817;52.798;27.544;2022-11-03T21:13:52;13.5;11;6.8
61879;PMS7003;47817;52.798;27.544;2022-11-03T21:19:35;12.4;10.4;6.8
61879;PMS7003;47817;52.798;27.544;2022-11-03T21:24:33;9.8;7.8;6
61879;PMS7003;47817;52.798;27.544;2022-11-03T21:29:09;6.2;5.2;4.4
61879;PMS7003;47817;52.798;27.544;2022-11-03T21:34:01;11.8;8.4;6.2
61879;PMS7003;47817;52.798;27.544;2022-11-03T21:39:21;11.4;8;6
61879;PMS7003;47817;52.798;27.544;2022-11-03T21:44:27;8.5;7.3;5.5
61879;PMS7003;47817;52.798;27.544;2022-11-03T21:48:51;9.2;7.2;5.2
61879;PMS7003;47817;52.798;27.544;2022-11-03T21:54:11;11.4;8;6
61879;PMS7003;47817;52.798;27.544;2022-11-03T21:58:51;10.2;6.8;4.8
61879;PMS7003;47817;52.798;27.544;2022-11-03T22:04:23;9.6;7.2;5.8
61879;PMS7003;47817;52.798;27.544;2022-11-03T22:09:01;13.6;8.6;6.8
61879;PMS7003;47817;52.798;27.544;2022-11-03T22:14:33;9.8;8.2;6.2
61879;PMS7003;47817;52.798;27.544;2022-11-03T22:18:57;12.2;10;7.8
61879;PMS7003;47817;52.798;27.544;2022-11-03T22:23:51;13;11.4;8.4
61879;PMS7003;47817;52.798;27.544;2022-11-03T22:29:09;9;8.4;6.2
61879;PMS7003;47817;52.798;27.544;2022-11-03T22:34:17;11.2;7.8;6.2
61879;PMS7003;47817;52.798;27.544;2022-11-03T22:39:29;10.4;8.2;6
61879;PMS7003;47817;52.798;27.544;2022-11-03T22:44:33;10.5;8.3;6
61879;PMS7003;47817;52.798;27.544;2022-11-03T22:48:51;10.2;9;6.2
61879;PMS7003;47817;52.798;27.544;2022-11-03T22:54:17;11.2;8.6;6.6
61879;PMS7003;47817;52.798;27.544;2022-11-03T22:59:23;7.6;6.6;5.4
61879;PMS7003;47817;52.798;27.544;2022-11-03T23:03:51;9.4;7.4;5.2
61879;PMS7003;47817;52.798;27.544;2022-11-03T23:09:27;8.2;6.6;4.6
61879;PMS7003;47817;52.798;27.544;2022-11-03T23:13:52;9;7.4;5.8
61879;PMS7003;47817;52.798;27.544;2022-11-03T23:19:31;9.6;7.2;5.2
61879;PMS7003;47817;52.798;27.544;2022-11-03T23:24:05;9;7.3;5.8
61879;PMS7003;47817;52.798;27.544;2022-11-03T23:29:31;9.6;6.8;5.6
61879;PMS7003;47817;52.798;27.544;2022-11-03T23:34:04;11.8;8;5
61879;PMS7003;47817;52.798;27.544;2022-11-03T23:38:58;10.8;8.2;5.6
61879;PMS7003;47817;52.798;27.544;2022-11-03T23:44:09;12.6;8.4;6.2
61879;PMS7003;47817;52.798;27.544;2022-11-03T23:49:17;9.2;7;5
61879;PMS7003;47817;52.798;27.544;2022-11-03T23:54:31;8.8;6.5;5.3
61879;PMS7003;47817;52.798;27.544;2022-11-03T23:59:17;12.2;7.6;5.6
